Time;durP1;ratioP1;P1;durP2;ratioP2;P2;SDS_P1;SDS_P2;PMS_P1;PMS_P2;Temp;Humidity;BMP_temperature;BMP_pressure;BME280_temperature;BME280_humidity;BME280_pressure;Samples;Min_cycle;Max_cycle;Signal;HPM_P1;HPM_P2
2023/10/26 00:02:18;;;;;;;0.00;0.00;;;;;;;10.89;85.37;98564.72;4902939;28;20059;-82
2023/10/26 00:04:45;;;;;;;0.00;0.00;;;;;;;10.89;85.39;98568.22;4905639;28;20120;-85
2023/10/26 00:07:14;;;;;;;1.20;0.10;;;;;;;10.88;85.63;98566.50;4901771;28;20048;-83
2023/10/26 00:09:40;;;;;;;0.10;0.10;;;;;;;10.88;85.84;98568.28;4912223;28;20052;-82
2023/10/26 00:12:07;;;;;;;0.17;0.10;;;;;;;10.83;85.67;98567.63;4923047;28;20112;-86
2023/10/26 00:14:34;;;;;;;0.00;0.00;;;;;;;10.85;85.93;98576.28;4917827;28;20059;-82
2023/10/26 00:17:01;;;;;;;0.10;0.00;;;;;;;10.84;85.80;98562.31;4913330;28;20047;-82
2023/10/26 00:19:28;;;;;;;0.00;0.00;;;;;;;10.88;85.50;98557.78;4907524;28;20517;-84
2023/10/26 00:21:55;;;;;;;0.20;0.10;;;;;;;10.90;84.90;98563.81;4894816;28;20063;-86
2023/10/26 00:24:21;;;;;;;0.00;0.00;;;;;;;10.89;84.92;98559.47;4907760;28;20167;-84
2023/10/26 00:26:49;;;;;;;0.45;0.10;;;;;;;10.90;84.54;98569.06;4919646;28;20063;-82
2023/10/26 00:29:16;;;;;;;0.15;0.00;;;;;;;10.90;85.02;98569.06;4901013;28;20495;-82
2023/10/26 00:31:43;;;;;;;0.08;0.08;;;;;;;10.93;84.41;98566.28;4916315;28;20056;-82
2023/10/26 00:34:10;;;;;;;0.10;0.00;;;;;;;10.90;85.00;98563.81;4919135;28;20063;-83
2023/10/26 00:36:36;;;;;;;0.10;0.08;;;;;;;10.89;85.15;98580.47;4925935;28;20056;-82
2023/10/26 00:39:03;;;;;;;0.00;0.00;;;;;;;10.86;85.62;98572.72;4928222;28;20044;-83
2023/10/26 00:41:30;;;;;;;0.10;0.08;;;;;;;10.86;85.31;98575.34;4913906;28;20475;-83
2023/10/26 00:43:57;;;;;;;0.00;0.00;;;;;;;10.86;85.05;98568.34;4901157;28;20104;-82
2023/10/26 00:46:24;;;;;;;0.28;0.00;;;;;;;10.83;85.20;98583.38;4916611;28;20052;-86
2023/10/26 00:48:52;;;;;;;0.20;0.10;;;;;;;10.84;85.69;98582.47;4906510;29;20098;-82
2023/10/26 00:51:19;;;;;;;0.15;0.03;;;;;;;10.84;85.40;98582.47;4910709;28;20122;-86
2023/10/26 00:53:46;;;;;;;0.15;0.00;;;;;;;10.87;85.00;98575.28;4926655;28;20066;-90
2023/10/26 00:56:14;;;;;;;0.00;0.00;;;;;;;10.88;85.06;98584.03;4915530;29;20052;-82
2023/10/26 00:58:41;;;;;;;0.00;0.00;;;;;;;10.86;85.51;98591.09;4916491;29;20422;-85
2023/10/26 01:01:08;;;;;;;0.00;0.00;;;;;;;10.82;85.67;98592.16;4927864;28;20100;-86
2023/10/26 01:03:36;;;;;;;0.10;0.10;;;;;;;10.80;85.97;98584.34;4909319;28;20047;-82
2023/10/26 01:06:03;;;;;;;0.22;0.10;;;;;;;10.72;86.55;98587.34;4902563;28;20058;-84
2023/10/26 01:08:30;;;;;;;0.03;0.00;;;;;;;10.72;86.71;98587.34;4910984;28;20138;-82
2023/10/26 01:10:57;;;;;;;0.08;0.08;;;;;;;10.71;86.93;98596.13;4904971;28;20052;-83
2023/10/26 01:13:24;;;;;;;0.00;0.00;;;;;;;10.73;86.69;98594.31;4911749;28;20063;-83
2023/10/26 01:15:51;;;;;;;0.32;0.00;;;;;;;10.73;86.40;98593.44;4909218;28;20051;-82
2023/10/26 01:18:18;;;;;;;0.10;0.10;;;;;;;10.70;86.83;98604.94;4914808;29;20580;-86
2023/10/26 01:20:45;;;;;;;1.30;0.05;;;;;;;10.67;87.24;98601.59;4909049;28;20067;-85
2023/10/26 01:23:12;;;;;;;1.75;0.00;;;;;;;10.66;87.22;98600.75;4911051;28;20053;-83
2023/10/26 01:25:39;;;;;;;0.20;0.10;;;;;;;10.63;88.01;98611.38;4924686;28;20423;-86
2023/10/26 01:28:07;;;;;;;0.52;0.10;;;;;;;10.61;87.29;98610.56;4924720;28;20044;-83
2023/10/26 01:30:34;;;;;;;0.00;0.00;;;;;;;10.60;87.43;98608.84;4917586;28;20048;-85
2023/10/26 01:33:01;;;;;;;0.00;0.00;;;;;;;10.63;85.87;98600.88;4904385;28;20048;-83
2023/10/26 01:35:35;;;;;;;0.00;0.00;;;;;;;10.59;85.87;98601.94;4916094;28;20107;-84
2023/10/26 01:38:02;;;;;;;0.00;0.00;;;;;;;10.68;85.11;98598.03;4904470;28;20048;-82
2023/10/26 01:40:29;;;;;;;0.20;0.00;;;;;;;10.67;85.18;98601.59;4930730;28;20055;-84
2023/10/26 01:42:56;;;;;;;0.10;0.08;;;;;;;10.67;84.90;98598.97;4907273;28;20084;-91
2023/10/26 01:45:23;;;;;;;0.00;0.00;;;;;;;10.72;84.57;98600.47;4900921;28;20060;-83
2023/10/26 01:47:50;;;;;;;0.00;0.00;;;;;;;10.72;84.24;98602.25;4909262;28;20048;-84
2023/10/26 01:50:17;;;;;;;0.00;0.00;;;;;;;10.70;84.26;98601.44;4900416;28;20135;-83
2023/10/26 01:52:44;;;;;;;0.00;0.00;;;;;;;10.65;85.09;98601.66;4912448;28;20056;-84
2023/10/26 01:55:11;;;;;;;0.00;0.00;;;;;;;10.63;85.63;98603.50;4904629;28;20048;-82
2023/10/26 01:57:38;;;;;;;0.13;0.00;;;;;;;10.64;85.31;98609.59;4919671;28;20051;-82
2023/10/26 02:00:05;;;;;;;0.00;0.00;;;;;;;10.71;83.79;98611.03;4901482;28;20052;-85
2023/10/26 02:02:32;;;;;;;0.10;0.00;;;;;;;10.73;82.68;98606.53;4916673;28;20058;-83
2023/10/26 02:04:59;;;;;;;0.00;0.00;;;;;;;10.72;83.46;98610.13;4906659;28;20083;-83
2023/10/26 02:07:26;;;;;;;0.00;0.00;;;;;;;10.66;83.82;98611.22;4903650;29;20055;-82
2023/10/26 02:09:52;;;;;;;0.00;0.00;;;;;;;10.69;82.67;98607.59;4912298;28;20513;-82
2023/10/26 02:12:20;;;;;;;0.05;0.00;;;;;;;10.73;81.75;98610.03;4906721;28;20522;-82
2023/10/26 02:14:48;;;;;;;0.00;0.00;;;;;;;10.68;81.66;98596.25;4924328;28;20070;-82
2023/10/26 02:17:15;;;;;;;0.00;0.00;;;;;;;10.69;81.19;98613.72;4905567;28;20056;-83
2023/10/26 02:19:42;;;;;;;0.10;0.10;;;;;;;10.82;79.99;98618.41;4910896;29;20115;-82
2023/10/26 02:22:09;;;;;;;0.10;0.00;;;;;;;10.79;80.13;98608.91;4909194;28;20055;-82
2023/10/26 02:24:35;;;;;;;0.10;0.10;;;;;;;10.77;80.68;98605.50;4913480;28;20052;-82
2023/10/26 02:27:02;;;;;;;0.90;0.00;;;;;;;10.69;81.45;98605.84;4892611;28;20541;-90
2023/10/26 02:29:29;;;;;;;0.10;0.10;;;;;;;10.70;80.63;98615.44;4905248;28;20062;-82
2023/10/26 02:31:56;;;;;;;0.10;0.10;;;;;;;10.65;81.18;98612.16;4919337;28;20083;-84
2023/10/26 02:34:23;;;;;;;0.10;0.10;;;;;;;10.65;80.16;98606.06;4899701;28;20048;-83
2023/10/26 02:36:50;;;;;;;0.10;0.10;;;;;;;10.57;80.76;98603.75;4922536;28;20117;-82
2023/10/26 02:39:17;;;;;;;0.10;0.10;;;;;;;10.59;80.09;98602.78;4899140;28;20162;-82
2023/10/26 02:41:44;;;;;;;0.13;0.10;;;;;;;10.58;80.26;98610.72;4901903;28;20155;-83
2023/10/26 02:44:11;;;;;;;0.50;0.10;;;;;;;10.51;80.71;98611.91;4911903;28;20062;-85
2023/10/26 02:46:37;;;;;;;0.35;0.20;;;;;;;10.52;80.26;98617.06;4913546;28;20052;-83
2023/10/26 02:49:04;;;;;;;0.88;0.20;;;;;;;10.54;80.01;98611.75;4896063;29;20050;-83
2023/10/26 02:51:31;;;;;;;0.20;0.20;;;;;;;10.49;80.57;98614.59;4923331;28;20047;-85
2023/10/26 02:53:58;;;;;;;0.20;0.20;;;;;;;10.50;80.50;98607.56;4896965;28;20048;-83
2023/10/26 02:56:25;;;;;;;0.77;0.30;;;;;;;10.44;80.60;98620.03;4914612;28;20337;-84
2023/10/26 02:58:52;;;;;;;0.95;0.50;;;;;;;10.47;80.07;98621.69;4926090;28;20059;-84
2023/10/26 03:01:19;;;;;;;0.63;0.50;;;;;;;10.48;80.09;98620.75;4913260;28;20048;-87
2023/10/26 03:03:49;;;;;;;0.43;0.28;;;;;;;10.44;79.77;98606.94;4913411;28;20127;-85
2023/10/26 03:06:16;;;;;;;0.20;0.20;;;;;;;10.39;80.19;98611.50;4914777;28;20143;-86
2023/10/26 03:08:42;;;;;;;0.50;0.30;;;;;;;10.39;80.32;98608.88;4916463;28;20044;-83
2023/10/26 03:11:09;;;;;;;0.90;0.30;;;;;;;10.35;80.29;98614.34;4900517;28;20055;-83
2023/10/26 03:13:36;;;;;;;0.20;0.20;;;;;;;10.38;80.08;98608.97;4910176;28;20059;-83
2023/10/26 03:16:06;;;;;;;0.60;0.30;;;;;;;10.35;80.54;98609.94;4904332;28;20055;-90
2023/10/26 03:18:32;;;;;;;0.22;0.20;;;;;;;10.33;80.52;98606.50;4916166;28;20513;-85
2023/10/26 03:20:59;;;;;;;0.98;0.30;;;;;;;10.32;80.59;98610.03;4904556;28;20047;-90
2023/10/26 03:23:26;;;;;;;0.22;0.20;;;;;;;10.28;81.34;98616.34;4914877;28;20088;-83
2023/10/26 03:25:53;;;;;;;0.32;0.30;;;;;;;10.26;81.70;98616.41;4904529;28;20051;-83
2023/10/26 03:28:20;;;;;;;0.85;0.40;;;;;;;10.25;81.99;98616.47;4911049;28;20055;-83
2023/10/26 03:30:46;;;;;;;0.20;0.20;;;;;;;10.23;81.34;98618.31;4939104;28;20051;-86
2023/10/26 03:33:13;;;;;;;0.25;0.25;;;;;;;10.24;81.40;98614.78;4899376;28;20047;-85
2023/10/26 03:35:40;;;;;;;0.60;0.40;;;;;;;10.25;81.36;98616.47;4919298;28;20052;-83
2023/10/26 03:38:08;;;;;;;0.57;0.40;;;;;;;10.23;81.39;98618.31;4903471;28;20067;-87
2023/10/26 03:40:35;;;;;;;0.43;0.43;;;;;;;10.21;81.50;98620.13;4904758;28;20051;-85
2023/10/26 03:43:02;;;;;;;1.05;0.50;;;;;;;10.22;81.07;98614.81;4913519;28;20052;-84
2023/10/26 03:45:31;;;;;;;0.85;0.55;;;;;;;10.21;81.11;98618.38;4916601;29;20073;-83
2023/10/26 03:47:59;;;;;;;0.50;0.50;;;;;;;10.22;81.17;98629.72;4904916;28;20055;-84
2023/10/26 03:50:26;;;;;;;0.40;0.30;;;;;;;10.17;81.40;98619.44;4914394;28;20154;-83
2023/10/26 03:52:52;;;;;;;0.30;0.30;;;;;;;10.17;81.97;98619.44;4918815;28;20050;-84
2023/10/26 03:55:19;;;;;;;0.35;0.30;;;;;;;10.17;82.43;98626.44;4901451;28;20059;-86
2023/10/26 03:57:48;;;;;;;0.30;0.30;;;;;;;10.15;82.22;98617.78;4913373;29;20051;-85
2023/10/26 04:00:16;;;;;;;0.80;0.40;;;;;;;10.13;82.08;98624.88;4902101;29;20059;-87
2023/10/26 04:02:43;;;;;;;1.88;0.40;;;;;;;10.13;82.50;98630.09;4909207;28;20052;-83
2023/10/26 04:05:10;;;;;;;0.52;0.43;;;;;;;10.14;82.83;98622.19;4910410;28;20112;-85
2023/10/26 04:07:38;;;;;;;0.45;0.30;;;;;;;10.08;82.52;98623.28;4907508;28;20048;-84
2023/10/26 04:10:07;;;;;;;3.65;0.75;;;;;;;10.07;82.04;98634.69;4861429;28;20131;-85
2023/10/26 04:12:34;;;;;;;0.88;0.45;;;;;;;10.12;82.12;98628.41;4926021;28;20051;-83
2023/10/26 04:15:03;;;;;;;0.50;0.50;;;;;;;10.08;82.04;98627.69;4896692;28;20048;-83
2023/10/26 04:17:30;;;;;;;0.30;0.30;;;;;;;10.09;81.40;98627.63;4912144;29;20052;-83
2023/10/26 04:19:57;;;;;;;0.85;0.50;;;;;;;10.10;81.26;98631.94;4911610;28;20052;-84
2023/10/26 04:22:26;;;;;;;0.63;0.40;;;;;;;10.10;81.39;98631.94;4924163;28;20150;-87
2023/10/26 04:24:53;;;;;;;0.45;0.45;;;;;;;10.09;81.42;98622.38;4903856;28;20052;-86
2023/10/26 04:27:19;;;;;;;0.50;0.40;;;;;;;10.12;81.10;98628.41;4903038;28;20077;-84
2023/10/26 04:29:46;;;;;;;0.65;0.45;;;;;;;10.05;81.99;98617.31;4904376;28;20052;-87
2023/10/26 04:32:13;;;;;;;0.30;0.30;;;;;;;10.06;81.36;98619.03;4910123;28;20058;-87
2023/10/26 04:34:43;;;;;;;0.70;0.47;;;;;;;10.05;81.66;98619.94;4911954;28;20127;-84
2023/10/26 04:37:11;;;;;;;0.65;0.50;;;;;;;10.09;80.95;98617.13;4910936;28;20471;-85
2023/10/26 04:39:41;;;;;;;0.40;0.40;;;;;;;10.06;81.05;98619.84;4909150;28;20060;-84
2023/10/26 04:42:08;;;;;;;0.55;0.40;;;;;;;10.06;81.18;98619.84;4901399;28;20076;-84
2023/10/26 04:44:35;;;;;;;0.75;0.40;;;;;;;10.06;81.03;98621.63;4909505;28;20052;-87
2023/10/26 04:47:01;;;;;;;0.60;0.40;;;;;;;10.05;81.31;98633.91;4901570;28;20059;-85
2023/10/26 04:49:28;;;;;;;0.93;0.47;;;;;;;10.06;81.17;98626.88;4901718;28;20048;-84
2023/10/26 04:51:55;;;;;;;0.30;0.30;;;;;;;10.04;81.13;98624.31;4896659;28;20059;-91
2023/10/26 04:54:23;;;;;;;0.60;0.60;;;;;;;10.02;81.61;98633.16;4908086;28;20138;-87
2023/10/26 04:56:50;;;;;;;0.90;0.47;;;;;;;10.00;81.27;98622.75;4920050;28;20047;-84
2023/10/26 04:59:17;;;;;;;1.35;0.57;;;;;;;10.01;81.51;98621.84;4926775;28;20142;-85
2023/10/26 05:01:44;;;;;;;0.45;0.40;;;;;;;9.98;81.96;98621.97;4915319;28;20043;-89
2023/10/26 05:04:12;;;;;;;0.60;0.60;;;;;;;10.00;82.12;98609.63;4905653;28;20066;-87
2023/10/26 05:06:39;;;;;;;1.17;0.60;;;;;;;9.96;81.99;98610.69;4908754;28;20055;-85
2023/10/26 05:09:06;;;;;;;0.90;0.70;;;;;;;9.95;81.76;98606.38;4914301;28;20047;-87
2023/10/26 05:11:33;;;;;;;0.50;0.50;;;;;;;9.94;82.27;98606.44;4922471;28;20119;-85
2023/10/26 05:14:03;;;;;;;0.60;0.60;;;;;;;9.91;82.64;98610.03;4907512;28;20082;-86
2023/10/26 05:16:30;;;;;;;0.80;0.70;;;;;;;9.92;82.21;98611.72;4913934;28;20054;-87
2023/10/26 05:18:56;;;;;;;0.50;0.43;;;;;;;9.87;82.49;98611.06;4931455;28;20593;-82
2023/10/26 05:21:23;;;;;;;1.23;0.77;;;;;;;9.89;82.68;98617.97;4905661;28;20052;-82
2023/10/26 05:23:50;;;;;;;0.50;0.50;;;;;;;9.89;82.52;98611.84;4925703;28;20200;-83
2023/10/26 05:26:17;;;;;;;1.10;0.70;;;;;;;9.89;82.67;98612.72;4910256;28;20154;-85
2023/10/26 05:28:46;;;;;;;0.88;0.57;;;;;;;9.89;82.33;98609.22;4921496;28;20056;-84
2023/10/26 05:31:12;;;;;;;0.95;0.85;;;;;;;9.86;82.58;98606.75;4917412;28;20139;-84
2023/10/26 05:33:41;;;;;;;1.40;0.80;;;;;;;9.84;82.61;98604.19;4916593;29;20115;-85
2023/10/26 05:36:08;;;;;;;0.70;0.60;;;;;;;9.81;82.95;98599.06;4926583;28;20071;-86
2023/10/26 05:38:35;;;;;;;2.20;0.80;;;;;;;9.83;83.00;98599.84;4912632;28;20059;-82
2023/10/26 05:41:02;;;;;;;2.05;0.70;;;;;;;9.82;83.08;98595.56;4915546;28;20056;-82
2023/10/26 05:43:29;;;;;;;1.20;0.90;;;;;;;9.86;82.83;98591.91;4912182;29;20529;-83
2023/10/26 05:46:02;;;;;;;3.53;1.05;;;;;;;9.83;83.04;98580.69;4910057;28;20552;-81
2023/10/26 05:48:31;;;;;;;1.23;1.02;;;;;;;9.85;82.50;98578.88;4927510;28;20074;-81
2023/10/26 05:51:00;;;;;;;1.35;0.95;;;;;;;9.84;82.66;98571.91;4927169;28;20079;-79
2023/10/26 05:53:27;;;;;;;1.75;1.10;;;;;;;9.85;82.37;98579.69;4899458;28;20063;-80
2023/10/26 05:55:58;;;;;;;1.70;1.05;;;;;;;9.85;82.72;98578.88;4891168;28;20059;-81
2023/10/26 05:58:28;;;;;;;1.15;0.90;;;;;;;9.79;82.83;98586.94;4872626;28;20086;-81
2023/10/26 06:00:55;;;;;;;1.58;0.90;;;;;;;9.82;83.05;98585.06;4916992;28;20051;-78
2023/10/26 06:03:24;;;;;;;1.77;1.00;;;;;;;9.78;82.54;98593.13;4906834;28;20063;-82
2023/10/26 06:06:00;;;;;;;2.03;1.17;;;;;;;9.77;83.13;98591.41;4912952;28;20049;-83
2023/10/26 06:08:27;;;;;;;1.13;1.02;;;;;;;9.78;82.48;98593.97;4892860;29;20067;-82
2023/10/26 06:10:54;;;;;;;1.60;1.27;;;;;;;9.74;82.91;98588.00;4924102;28;20062;-83
2023/10/26 06:13:21;;;;;;;1.35;1.20;;;;;;;9.71;83.28;98593.34;4906948;28;20051;-82
2023/10/26 06:15:48;;;;;;;1.30;1.02;;;;;;;9.72;83.18;98592.44;4913030;28;20452;-82
2023/10/26 06:18:14;;;;;;;1.40;1.30;;;;;;;9.76;83.73;98598.41;4897091;28;20043;-82
2023/10/26 06:20:41;;;;;;;1.25;1.15;;;;;;;9.74;83.65;98603.72;4918553;28;20135;-83
2023/10/26 06:23:09;;;;;;;2.88;1.30;;;;;;;9.71;82.84;98593.34;4899933;28;20055;-83
2023/10/26 06:25:38;;;;;;;1.60;1.02;;;;;;;9.71;82.36;98595.97;4909938;28;20055;-80
2023/10/26 06:28:05;;;;;;;5.60;2.50;;;;;;;9.78;83.89;98603.59;4910668;28;20058;-80
2023/10/26 06:30:33;;;;;;;5.85;1.77;;;;;;;9.72;82.70;98599.47;4938281;28;20055;-80
2023/10/26 06:33:00;;;;;;;6.38;2.03;;;;;;;9.75;82.72;98599.34;4917936;28;20071;-80
2023/10/26 06:35:27;;;;;;;2.33;1.33;;;;;;;9.72;83.81;98596.84;4911360;28;20075;-81
2023/10/26 06:37:54;;;;;;;1.63;1.48;;;;;;;9.68;83.51;98593.50;4919855;28;20058;-82
2023/10/26 06:40:21;;;;;;;1.38;1.27;;;;;;;9.71;83.04;98595.13;4914500;28;20052;-82
2023/10/26 06:42:48;;;;;;;1.77;1.40;;;;;;;9.73;83.88;98596.78;4906989;28;20052;-83
2023/10/26 06:45:14;;;;;;;1.63;1.23;;;;;;;9.72;82.50;98600.31;4908015;28;20063;-83
2023/10/26 06:47:42;;;;;;;5.47;1.80;;;;;;;9.78;83.06;98598.38;4935531;28;20106;-83
2023/10/26 06:50:09;;;;;;;3.53;1.52;;;;;;;9.80;83.22;98599.16;4894306;28;20044;-82
2023/10/26 06:52:36;;;;;;;1.27;1.10;;;;;;;9.80;83.13;98597.38;4917844;28;20051;-83
2023/10/26 06:55:03;;;;;;;3.05;1.63;;;;;;;9.84;84.01;98598.09;4906287;28;20060;-83
2023/10/26 06:57:44;;;;;;;4.20;1.67;;;;;;;9.87;83.77;98603.22;4919370;28;20051;-84
2023/10/26 07:00:12;;;;;;;3.90;2.17;;;;;;;9.87;83.81;98605.84;4898210;28;20048;-83
2023/10/26 07:02:39;;;;;;;4.00;1.60;;;;;;;9.93;84.80;98595.09;4909144;28;20063;-82
2023/10/26 07:05:06;;;;;;;1.90;1.50;;;;;;;9.88;84.67;98597.91;4900920;28;20087;-81
2023/10/26 07:07:34;;;;;;;2.03;1.75;;;;;;;9.84;85.63;98595.50;4918982;28;20052;-82
2023/10/26 07:10:01;;;;;;;2.55;1.52;;;;;;;9.92;86.32;98596.00;4910469;28;20103;-82
2023/10/26 07:12:29;;;;;;;2.50;1.70;;;;;;;9.93;86.63;98589.84;4898628;29;20059;-82
2023/10/26 07:14:56;;;;;;;2.42;1.70;;;;;;;9.89;85.17;98585.66;4888248;29;20052;-82
2023/10/26 07:17:24;;;;;;;1.77;1.63;;;;;;;9.91;85.53;98589.91;4922006;28;20061;-82
2023/10/26 07:19:51;;;;;;;2.85;1.65;;;;;;;10.01;86.06;98590.38;4917392;28;20078;-82
2023/10/26 07:22:17;;;;;;;2.42;1.30;;;;;;;10.05;85.80;98591.97;4907508;28;20057;-82
2023/10/26 07:24:44;;;;;;;3.42;1.45;;;;;;;10.03;85.09;98588.53;4911541;28;20165;-82
2023/10/26 07:27:11;;;;;;;2.20;1.90;;;;;;;10.09;85.59;98588.31;4915261;28;20048;-83
2023/10/26 07:29:41;;;;;;;2.20;1.70;;;;;;;10.09;85.31;98588.31;4910992;29;20060;-83
2023/10/26 07:32:08;;;;;;;2.00;1.63;;;;;;;10.12;84.78;98575.97;4893963;28;20048;-82
2023/10/26 07:34:35;;;;;;;4.25;1.85;;;;;;;10.13;84.25;98564.59;4904702;28;20052;-83
2023/10/26 07:37:02;;;;;;;2.05;1.67;;;;;;;10.20;84.74;98563.41;4908618;28;20051;-83
2023/10/26 07:39:32;;;;;;;3.63;1.60;;;;;;;10.26;84.65;98571.00;4909112;28;20055;-84
2023/10/26 07:42:14;;;;;;;2.40;1.90;;;;;;;10.38;85.63;98562.59;4889558;28;20043;-83
2023/10/26 07:44:41;;;;;;;2.13;1.70;;;;;;;10.36;84.54;98555.75;4909090;29;20115;-84
2023/10/26 07:47:08;;;;;;;2.72;2.20;;;;;;;10.38;84.66;98559.97;4912349;28;20048;-83
2023/10/26 07:49:35;;;;;;;6.15;2.30;;;;;;;10.51;84.71;98559.44;4909411;28;20459;-82
2023/10/26 07:52:03;;;;;;;3.28;2.00;;;;;;;10.50;84.14;98563.84;4912676;28;20052;-83
2023/10/26 07:54:30;;;;;;;3.40;2.00;;;;;;;10.50;83.85;98562.97;4911693;28;20063;-83
2023/10/26 07:56:56;;;;;;;2.63;1.75;;;;;;;10.37;82.30;98566.16;4913966;28;20056;-83
2023/10/26 07:59:23;;;;;;;1.88;1.70;;;;;;;10.33;82.51;98556.69;4898572;28;20060;-83
2023/10/26 08:01:50;;;;;;;2.70;1.55;;;;;;;10.49;83.74;98551.66;4930356;28;20070;-84
2023/10/26 08:04:18;;;;;;;1.40;1.30;;;;;;;10.55;84.26;98553.16;4924956;28;20116;-83
2023/10/26 08:06:45;;;;;;;1.00;0.75;;;;;;;10.54;83.93;98539.19;4906142;28;20070;-83
2023/10/26 08:09:12;;;;;;;0.80;0.70;;;;;;;10.55;84.14;98561.84;4902832;28;20054;-84
2023/10/26 08:11:39;;;;;;;1.13;0.80;;;;;;;10.60;84.00;98566.91;4909845;28;20087;-83
2023/10/26 08:14:07;;;;;;;1.75;0.98;;;;;;;10.59;83.51;98547.69;4909157;28;20057;-84
2023/10/26 08:16:55;;;;;;;0.85;0.80;;;;;;;10.69;84.15;98563.00;4912323;29;20127;-83
2023/10/26 08:19:22;;;;;;;1.80;1.02;;;;;;;10.67;84.17;98563.06;4920694;28;20059;-83
2023/10/26 08:21:49;;;;;;;2.42;0.82;;;;;;;10.72;84.52;98571.59;4906514;28;20055;-83
2023/10/26 08:24:16;;;;;;;0.93;0.70;;;;;;;10.65;84.07;98566.72;4917337;28;20048;-84
2023/10/26 08:26:43;;;;;;;1.27;0.90;;;;;;;10.71;84.12;98554.16;4911924;28;20063;-83
2023/10/26 08:29:10;;;;;;;1.27;0.95;;;;;;;10.69;83.86;98560.38;4908917;28;20400;-84
2023/10/26 08:31:47;;;;;;;1.35;1.10;;;;;;;10.77;83.77;98563.50;4917091;28;20503;-83
2023/10/26 08:34:14;;;;;;;1.75;1.20;;;;;;;10.76;83.98;98562.69;4900180;28;20084;-81
2023/10/26 08:36:40;;;;;;;1.17;0.88;;;;;;;10.74;84.01;98568.91;4906491;28;20062;-83
2023/10/26 08:39:13;;;;;;;2.58;1.00;;;;;;;10.89;84.24;98578.72;4899046;28;20072;-82
2023/10/26 08:41:42;;;;;;;2.15;1.55;;;;;;;10.85;84.33;98577.16;4903536;28;20077;-83
2023/10/26 08:44:09;;;;;;;1.70;1.08;;;;;;;10.85;84.40;98581.53;4902177;28;20048;-83
2023/10/26 08:46:36;;;;;;;0.82;0.80;;;;;;;10.84;84.31;98585.94;4918975;28;20060;-84
2023/10/26 08:49:04;;;;;;;0.93;0.80;;;;;;;10.82;84.01;98598.28;4922412;28;20149;-83
2023/10/26 08:51:30;;;;;;;1.33;0.77;;;;;;;10.79;84.06;98607.13;4921821;28;20052;-83
2023/10/26 08:53:57;;;;;;;0.63;0.63;;;;;;;10.78;84.15;98613.28;4915979;28;20055;-83
2023/10/26 08:56:24;;;;;;;1.25;0.75;;;;;;;10.75;84.19;98618.69;4911270;29;20052;-83
2023/10/26 08:58:56;;;;;;;1.30;0.70;;;;;;;10.76;84.06;98633.50;4918838;28;20392;-84
2023/10/26 09:01:23;;;;;;;4.70;0.40;;;;;;;10.74;83.72;98637.13;4904643;28;20055;-84
2023/10/26 09:03:50;;;;;;;2.65;0.32;;;;;;;10.68;83.51;98643.50;4918849;28;20582;-83
2023/10/26 09:06:17;;;;;;;1.83;0.52;;;;;;;10.66;83.86;98653.22;4914753;28;20048;-83
2023/10/26 09:08:59;;;;;;;0.88;0.40;;;;;;;10.66;83.29;98653.22;4903995;28;20048;-83
2023/10/26 09:11:26;;;;;;;1.17;0.60;;;;;;;10.64;83.86;98660.28;4921010;28;20061;-83
2023/10/26 09:13:53;;;;;;;1.60;0.60;;;;;;;10.59;84.98;98650.00;4941287;28;20051;-84
2023/10/26 09:16:34;;;;;;;0.75;0.40;;;;;;;10.62;84.85;98643.75;4905825;28;20118;-84
2023/10/26 09:19:01;;;;;;;0.57;0.57;;;;;;;10.66;85.65;98634.84;4925980;28;20066;-83
2023/10/26 09:21:28;;;;;;;0.73;0.60;;;;;;;10.62;86.01;98628.03;4918785;28;20052;-83
2023/10/26 09:23:54;;;;;;;0.70;0.50;;;;;;;10.54;85.74;98643.25;4910016;28;20044;-83
2023/10/26 09:26:21;;;;;;;1.60;0.52;;;;;;;10.51;85.96;98646.84;4896373;28;20147;-82
2023/10/26 09:28:50;;;;;;;0.50;0.50;;;;;;;10.48;85.81;98649.59;4920742;28;20056;-84
2023/10/26 09:31:17;;;;;;;0.60;0.60;;;;;;;10.45;85.62;98636.63;4893717;28;20055;-82
2023/10/26 09:33:45;;;;;;;1.52;0.68;;;;;;;10.49;87.22;98632.13;4906905;28;20056;-82
2023/10/26 09:36:18;;;;;;;0.55;0.50;;;;;;;10.39;85.19;98632.50;4899773;28;20193;-84
2023/10/26 09:38:47;;;;;;;0.40;0.40;;;;;;;10.46;85.77;98638.34;4906599;28;20044;-83
2023/10/26 09:41:16;;;;;;;1.58;0.70;;;;;;;10.52;86.81;98622.31;4913054;28;20059;-84
2023/10/26 09:43:43;;;;;;;1.25;0.80;;;;;;;10.53;86.35;98617.91;4927611;28;20571;-84
2023/10/26 09:46:10;;;;;;;1.08;0.70;;;;;;;10.55;85.99;98600.38;4914507;28;20048;-81
2023/10/26 09:48:38;;;;;;;0.57;0.57;;;;;;;10.62;86.69;98599.16;4934357;28;20053;-82
2023/10/26 09:51:05;;;;;;;0.77;0.77;;;;;;;10.54;86.41;98603.91;4913199;28;20048;-83
2023/10/26 09:53:37;;;;;;;1.00;0.60;;;;;;;10.64;86.63;98613.06;4906367;29;20115;-82
2023/10/26 09:56:05;;;;;;;0.85;0.82;;;;;;;10.83;87.61;98609.63;4917435;28;20048;-82
2023/10/26 09:58:41;;;;;;;1.05;0.60;;;;;;;10.73;86.67;98622.28;4916348;29;20133;-82
2023/10/26 10:01:36;;;;;;;1.60;0.77;;;;;;;10.79;86.67;98615.00;4913004;28;20488;-83
2023/10/26 10:04:05;;;;;;;1.75;0.90;;;;;;;10.76;86.95;98612.53;4910238;28;20046;-81
2023/10/26 10:06:51;;;;;;;0.90;0.70;;;;;;;10.79;87.02;98614.16;4920022;29;20052;-83
2023/10/26 10:09:21;;;;;;;1.17;0.68;;;;;;;10.75;86.43;98615.22;4913099;28;20055;-83
2023/10/26 10:12:04;;;;;;;0.75;0.70;;;;;;;10.74;86.91;98616.97;4918108;28;20488;-82
2023/10/26 10:14:46;;;;;;;0.60;0.60;;;;;;;10.84;87.79;98617.41;4929127;28;20129;-82
2023/10/26 10:17:19;;;;;;;0.90;0.60;;;;;;;10.87;87.68;98616.44;4930876;28;20043;-83
2023/10/26 10:19:47;;;;;;;;;;;;;;;10.89;87.73;98610.19;4919953;28;20051;-84
2023/10/26 10:22:38;;;;;;;0.77;0.40;;;;;;;10.92;88.10;98614.44;4911048;28;19923;-83
2023/10/26 10:25:09;;;;;;;0.60;0.60;;;;;;;10.84;87.54;98606.06;4902536;28;20056;-83
2023/10/26 10:27:40;;;;;;;2.17;0.52;;;;;;;10.87;87.02;98600.69;4907199;29;20076;-83
2023/10/26 10:30:11;;;;;;;2.95;1.13;;;;;;;10.99;87.75;98607.97;4911879;28;20050;-83
2023/10/26 10:32:47;;;;;;;1.52;1.08;;;;;;;10.86;87.11;98610.34;4915693;28;20074;-83
2023/10/26 10:35:46;;;;;;;1.00;0.90;;;;;;;11.03;87.00;98622.66;4910683;28;20519;-82
2023/10/26 10:38:16;;;;;;;3.40;1.10;;;;;;;11.29;87.43;98592.56;4907481;28;20045;-83
2023/10/26 10:40:54;;;;;;;1.42;1.08;;;;;;;11.08;87.13;98583.09;4923677;28;20044;-83
2023/10/26 10:43:33;;;;;;;0.98;0.60;;;;;;;11.06;86.96;98596.28;4913633;28;20094;-83
2023/10/26 10:46:23;;;;;;;1.08;0.50;;;;;;;11.07;86.40;98581.41;4901371;28;20048;-79
2023/10/26 10:49:03;;;;;;;0.70;0.50;;;;;;;11.18;86.52;98583.50;4906100;28;20058;-83
2023/10/26 10:51:39;;;;;;;1.08;0.63;;;;;;;11.32;87.61;98575.81;4924766;28;20066;-84
2023/10/26 10:54:09;;;;;;;1.45;0.60;;;;;;;11.24;87.60;98577.97;4904345;28;20075;-84
2023/10/26 10:56:55;;;;;;;1.88;0.73;;;;;;;11.05;87.08;98581.47;4905510;28;20052;-82
2023/10/26 10:59:25;;;;;;;0.73;0.57;;;;;;;11.06;87.46;98579.69;4919130;28;20068;-84
2023/10/26 11:02:12;;;;;;;1.98;0.77;;;;;;;10.93;88.04;98576.78;4930771;28;20056;-82
2023/10/26 11:04:58;;;;;;;0.60;0.50;;;;;;;11.00;87.68;98562.44;4908302;29;20058;-83
2023/10/26 11:07:30;;;;;;;1.10;0.60;;;;;;;11.00;87.95;98549.31;4921828;28;20155;-83
2023/10/26 11:10:01;;;;;;;2.25;0.63;;;;;;;11.09;88.50;98541.03;4915443;28;20098;-83
2023/10/26 11:12:29;;;;;;;0.80;0.60;;;;;;;10.95;88.59;98549.56;4917884;28;20094;-81
2023/10/26 11:14:56;;;;;;;0.82;0.63;;;;;;;10.99;88.60;98552.03;4922262;28;20048;-83
2023/10/26 11:17:24;;;;;;;0.50;0.50;;;;;;;10.79;88.25;98551.19;4915195;28;20111;-80
2023/10/26 11:19:51;;;;;;;1.48;0.52;;;;;;;10.72;88.05;98552.41;4911647;28;20051;-83
2023/10/26 11:22:20;;;;;;;0.70;0.57;;;;;;;10.85;89.20;98555.28;4918816;28;20047;-83
2023/10/26 11:24:47;;;;;;;0.77;0.50;;;;;;;10.82;88.91;98542.31;4900732;28;20055;-81
2023/10/26 11:27:16;;;;;;;2.08;0.70;;;;;;;10.77;88.78;98539.91;4901297;28;20052;-83
2023/10/26 11:29:45;;;;;;;0.45;0.45;;;;;;;10.67;88.79;98549.97;4923036;28;20056;-81
2023/10/26 11:32:19;;;;;;;0.50;0.50;;;;;;;10.72;88.39;98549.78;4912275;28;20055;-83
2023/10/26 11:35:09;;;;;;;0.68;0.47;;;;;;;10.90;88.89;98538.41;4912539;28;20047;-84
2023/10/26 11:37:37;;;;;;;2.20;0.68;;;;;;;10.90;89.02;98532.31;4915860;28;20062;-81
2023/10/26 11:40:05;;;;;;;1.50;0.63;;;;;;;10.71;89.01;98527.91;4904104;28;20052;-82
2023/10/26 11:42:55;;;;;;;0.57;0.55;;;;;;;10.71;89.10;98527.91;4898885;29;20058;-82